sensor_id;sensor_type;location;lat;lon;timestamp;P1;durP1;ratioP1;P2;durP2;ratioP2
6505;SDS011;3286;49.858;8.768;2023-05-07T00:01:01;2.08;;;1.88;;
6505;SDS011;3286;49.858;8.768;2023-05-07T00:03:28;4.57;;;2.20;;
6505;SDS011;3286;49.858;8.768;2023-05-07T00:05:56;3.00;;;2.00;;
6505;SDS011;3286;49.858;8.768;2023-05-07T00:08:23;4.70;;;2.25;;
6505;SDS011;3286;49.858;8.768;2023-05-07T00:10:49;6.30;;;2.58;;
6505;SDS011;3286;49.858;8.768;2023-05-07T00:13:16;2.40;;;2.20;;
6505;SDS011;3286;49.858;8.768;2023-05-07T00:15:43;2.10;;;1.90;;
6505;SDS011;3286;49.858;8.768;2023-05-07T00:18:09;2.92;;;2.20;;
6505;SDS011;3286;49.858;8.768;2023-05-07T00:20:36;3.17;;;2.03;;
6505;SDS011;3286;49.858;8.768;2023-05-07T00:23:04;3.72;;;2.15;;
6505;SDS011;3286;49.858;8.768;2023-05-07T00:25:31;2.53;;;2.20;;
6505;SDS011;3286;49.858;8.768;2023-05-07T00:27:57;3.47;;;2.28;;
6505;SDS011;3286;49.858;8.768;2023-05-07T00:30:28;2.65;;;2.30;;
6505;SDS011;3286;49.858;8.768;2023-05-07T00:32:55;5.60;;;2.47;;
6505;SDS011;3286;49.858;8.768;2023-05-07T00:35:22;9.18;;;3.05;;
6505;SDS011;3286;49.858;8.768;2023-05-07T00:37:48;2.42;;;2.13;;
6505;SDS011;3286;49.858;8.768;2023-05-07T00:40:17;2.83;;;2.20;;
6505;SDS011;3286;49.858;8.768;2023-05-07T00:42:43;2.30;;;2.00;;
6505;SDS011;3286;49.858;8.768;2023-05-07T00:45:12;7.80;;;2.53;;
6505;SDS011;3286;49.858;8.768;2023-05-07T00:47:38;3.10;;;2.30;;
6505;SDS011;3286;49.858;8.768;2023-05-07T00:50:06;2.35;;;2.03;;
6505;SDS011;3286;49.858;8.768;2023-05-07T00:52:35;2.55;;;2.35;;
6505;SDS011;3286;49.858;8.768;2023-05-07T00:55:04;4.22;;;2.30;;
6505;SDS011;3286;49.858;8.768;2023-05-07T00:57:34;4.50;;;2.50;;
6505;SDS011;3286;49.858;8.768;2023-05-07T01:00:05;2.70;;;2.50;;
6505;SDS011;3286;49.858;8.768;2023-05-07T01:02:33;2.83;;;2.40;;
6505;SDS011;3286;49.858;8.768;2023-05-07T01:05:01;4.15;;;2.50;;
6505;SDS011;3286;49.858;8.768;2023-05-07T01:07:29;3.20;;;2.38;;
6505;SDS011;3286;49.858;8.768;2023-05-07T01:09:56;3.17;;;2.40;;
6505;SDS011;3286;49.858;8.768;2023-05-07T01:12:24;3.35;;;2.60;;
6505;SDS011;3286;49.858;8.768;2023-05-07T01:14:54;4.10;;;2.88;;
6505;SDS011;3286;49.858;8.768;2023-05-07T01:17:20;4.43;;;2.85;;
6505;SDS011;3286;49.858;8.768;2023-05-07T01:19:47;4.80;;;2.95;;
6505;SDS011;3286;49.858;8.768;2023-05-07T01:22:14;2.97;;;2.67;;
6505;SDS011;3286;49.858;8.768;2023-05-07T01:24:44;3.88;;;2.50;;
6505;SDS011;3286;49.858;8.768;2023-05-07T01:27:11;3.30;;;2.67;;
6505;SDS011;3286;49.858;8.768;2023-05-07T01:29:37;3.43;;;2.47;;
6505;SDS011;3286;49.858;8.768;2023-05-07T01:32:05;3.03;;;2.72;;
6505;SDS011;3286;49.858;8.768;2023-05-07T01:34:32;3.40;;;2.70;;
6505;SDS011;3286;49.858;8.768;2023-05-07T01:37:02;4.13;;;2.65;;
6505;SDS011;3286;49.858;8.768;2023-05-07T01:39:29;4.47;;;2.60;;
6505;SDS011;3286;49.858;8.768;2023-05-07T01:41:59;3.85;;;2.90;;
6505;SDS011;3286;49.858;8.768;2023-05-07T01:44:26;2.75;;;2.42;;
6505;SDS011;3286;49.858;8.768;2023-05-07T01:46:53;3.83;;;2.67;;
6505;SDS011;3286;49.858;8.768;2023-05-07T01:49:21;3.70;;;2.67;;
6505;SDS011;3286;49.858;8.768;2023-05-07T01:51:47;3.15;;;2.40;;
6505;SDS011;3286;49.858;8.768;2023-05-07T01:54:15;4.07;;;2.45;;
6505;SDS011;3286;49.858;8.768;2023-05-07T01:56:41;2.83;;;2.53;;
6505;SDS011;3286;49.858;8.768;2023-05-07T01:59:09;3.15;;;2.35;;
6505;SDS011;3286;49.858;8.768;2023-05-07T02:01:38;2.90;;;2.43;;
6505;SDS011;3286;49.858;8.768;2023-05-07T02:04:05;3.95;;;2.30;;
6505;SDS011;3286;49.858;8.768;2023-05-07T02:06:31;3.73;;;2.40;;
6505;SDS011;3286;49.858;8.768;2023-05-07T02:08:58;5.65;;;2.95;;
6505;SDS011;3286;49.858;8.768;2023-05-07T02:11:24;3.90;;;2.50;;
6505;SDS011;3286;49.858;8.768;2023-05-07T02:13:51;3.60;;;2.63;;
6505;SDS011;3286;49.858;8.768;2023-05-07T02:16:20;3.30;;;2.40;;
6505;SDS011;3286;49.858;8.768;2023-05-07T02:18:47;3.63;;;2.63;;
6505;SDS011;3286;49.858;8.768;2023-05-07T02:21:13;4.15;;;2.70;;
6505;SDS011;3286;49.858;8.768;2023-05-07T02:23:40;3.92;;;2.65;;
6505;SDS011;3286;49.858;8.768;2023-05-07T02:26:07;3.23;;;2.93;;
6505;SDS011;3286;49.858;8.768;2023-05-07T02:28:33;3.57;;;2.90;;
6505;SDS011;3286;49.858;8.768;2023-05-07T02:31:02;4.30;;;3.00;;
6505;SDS011;3286;49.858;8.768;2023-05-07T02:33:30;4.63;;;3.10;;
6505;SDS011;3286;49.858;8.768;2023-05-07T02:35:56;5.73;;;2.77;;
6505;SDS011;3286;49.858;8.768;2023-05-07T02:38:23;5.03;;;2.50;;
6505;SDS011;3286;49.858;8.768;2023-05-07T02:40:50;5.85;;;2.92;;
6505;SDS011;3286;49.858;8.768;2023-05-07T02:43:16;4.00;;;2.60;;
6505;SDS011;3286;49.858;8.768;2023-05-07T02:45:43;3.07;;;2.77;;
6505;SDS011;3286;49.858;8.768;2023-05-07T02:48:10;5.18;;;3.00;;
6505;SDS011;3286;49.858;8.768;2023-05-07T02:50:38;4.27;;;2.83;;
6505;SDS011;3286;49.858;8.768;2023-05-07T02:53:04;2.97;;;2.60;;
6505;SDS011;3286;49.858;8.768;2023-05-07T02:55:31;2.83;;;2.53;;
6505;SDS011;3286;49.858;8.768;2023-05-07T02:57:57;4.30;;;2.67;;
6505;SDS011;3286;49.858;8.768;2023-05-07T03:00:24;3.13;;;2.60;;
6505;SDS011;3286;49.858;8.768;2023-05-07T03:02:51;6.10;;;2.93;;
6505;SDS011;3286;49.858;8.768;2023-05-07T03:05:17;3.40;;;2.70;;
6505;SDS011;3286;49.858;8.768;2023-05-07T03:07:45;3.47;;;3.17;;
6505;SDS011;3286;49.858;8.768;2023-05-07T03:10:12;7.23;;;2.87;;
6505;SDS011;3286;49.858;8.768;2023-05-07T03:12:39;5.70;;;2.90;;
6505;SDS011;3286;49.858;8.768;2023-05-07T03:15:06;4.57;;;3.00;;
6505;SDS011;3286;49.858;8.768;2023-05-07T03:17:33;4.23;;;3.37;;
6505;SDS011;3286;49.858;8.768;2023-05-07T03:20:00;3.67;;;3.00;;
6505;SDS011;3286;49.858;8.768;2023-05-07T03:22:26;3.33;;;3.00;;
6505;SDS011;3286;49.858;8.768;2023-05-07T03:24:54;4.07;;;2.90;;
6505;SDS011;3286;49.858;8.768;2023-05-07T03:27:21;2.80;;;2.60;;
6505;SDS011;3286;49.858;8.768;2023-05-07T03:29:48;3.65;;;2.92;;
6505;SDS011;3286;49.858;8.768;2023-05-07T03:32:14;4.03;;;3.00;;
6505;SDS011;3286;49.858;8.768;2023-05-07T03:34:41;5.83;;;3.07;;
6505;SDS011;3286;49.858;8.768;2023-05-07T03:37:07;5.27;;;3.20;;
6505;SDS011;3286;49.858;8.768;2023-05-07T03:39:34;4.35;;;3.40;;
6505;SDS011;3286;49.858;8.768;2023-05-07T03:42:02;4.53;;;3.20;;
6505;SDS011;3286;49.858;8.768;2023-05-07T03:44:29;4.57;;;2.97;;
6505;SDS011;3286;49.858;8.768;2023-05-07T03:46:56;5.90;;;3.15;;
6505;SDS011;3286;49.858;8.768;2023-05-07T03:49:22;2.83;;;2.63;;
6505;SDS011;3286;49.858;8.768;2023-05-07T03:51:49;5.37;;;2.97;;
6505;SDS011;3286;49.858;8.768;2023-05-07T03:54:15;2.97;;;2.60;;
6505;SDS011;3286;49.858;8.768;2023-05-07T03:56:42;3.00;;;2.70;;
6505;SDS011;3286;49.858;8.768;2023-05-07T03:59:11;3.87;;;2.80;;
6505;SDS011;3286;49.858;8.768;2023-05-07T04:01:39;7.23;;;3.73;;
6505;SDS011;3286;49.858;8.768;2023-05-07T04:04:06;3.47;;;2.93;;
6505;SDS011;3286;49.858;8.768;2023-05-07T04:06:33;4.73;;;3.20;;
6505;SDS011;3286;49.858;8.768;2023-05-07T04:08:59;3.80;;;3.07;;
6505;SDS011;3286;49.858;8.768;2023-05-07T04:11:26;6.17;;;3.23;;
6505;SDS011;3286;49.858;8.768;2023-05-07T04:13:53;4.13;;;3.00;;
6505;SDS011;3286;49.858;8.768;2023-05-07T04:16:21;4.20;;;2.83;;
6505;SDS011;3286;49.858;8.768;2023-05-07T04:18:47;4.97;;;3.30;;
6505;SDS011;3286;49.858;8.768;2023-05-07T04:21:14;4.13;;;2.97;;
6505;SDS011;3286;49.858;8.768;2023-05-07T04:23:41;5.00;;;2.97;;
6505;SDS011;3286;49.858;8.768;2023-05-07T04:26:08;5.53;;;3.43;;
6505;SDS011;3286;49.858;8.768;2023-05-07T04:28:35;5.70;;;3.40;;
6505;SDS011;3286;49.858;8.768;2023-05-07T04:31:02;3.63;;;2.70;;
6505;SDS011;3286;49.858;8.768;2023-05-07T04:33:30;3.47;;;3.07;;
6505;SDS011;3286;49.858;8.768;2023-05-07T04:35:58;3.23;;;2.90;;
6505;SDS011;3286;49.858;8.768;2023-05-07T04:38:27;5.63;;;3.60;;
6505;SDS011;3286;49.858;8.768;2023-05-07T04:40:54;5.87;;;2.90;;
6505;SDS011;3286;49.858;8.768;2023-05-07T04:43:21;3.20;;;2.90;;
6505;SDS011;3286;49.858;8.768;2023-05-07T04:45:47;3.42;;;2.83;;
6505;SDS011;3286;49.858;8.768;2023-05-07T04:48:15;3.60;;;2.77;;
6505;SDS011;3286;49.858;8.768;2023-05-07T04:50:45;3.50;;;2.83;;
6505;SDS011;3286;49.858;8.768;2023-05-07T04:53:13;4.30;;;2.90;;
6505;SDS011;3286;49.858;8.768;2023-05-07T04:55:40;3.33;;;3.03;;
6505;SDS011;3286;49.858;8.768;2023-05-07T04:58:07;6.40;;;2.97;;
6505;SDS011;3286;49.858;8.768;2023-05-07T05:00:33;3.17;;;2.88;;
6505;SDS011;3286;49.858;8.768;2023-05-07T05:03:00;6.82;;;3.65;;
6505;SDS011;3286;49.858;8.768;2023-05-07T05:05:27;3.55;;;2.90;;
6505;SDS011;3286;49.858;8.768;2023-05-07T05:07:55;5.57;;;2.97;;
6505;SDS011;3286;49.858;8.768;2023-05-07T05:10:21;4.60;;;3.40;;
6505;SDS011;3286;49.858;8.768;2023-05-07T05:12:48;3.67;;;3.08;;
6505;SDS011;3286;49.858;8.768;2023-05-07T05:15:15;6.57;;;2.92;;
6505;SDS011;3286;49.858;8.768;2023-05-07T05:17:41;5.22;;;2.90;;
6505;SDS011;3286;49.858;8.768;2023-05-07T05:20:08;5.03;;;3.78;;
6505;SDS011;3286;49.858;8.768;2023-05-07T05:22:35;7.32;;;3.00;;
6505;SDS011;3286;49.858;8.768;2023-05-07T05:25:04;4.47;;;3.00;;
6505;SDS011;3286;49.858;8.768;2023-05-07T05:27:31;3.25;;;2.88;;
6505;SDS011;3286;49.858;8.768;2023-05-07T05:29:57;5.45;;;3.15;;
6505;SDS011;3286;49.858;8.768;2023-05-07T05:32:24;3.00;;;2.70;;
6505;SDS011;3286;49.858;8.768;2023-05-07T05:34:51;4.57;;;3.10;;
6505;SDS011;3286;49.858;8.768;2023-05-07T05:37:17;5.43;;;3.13;;
6505;SDS011;3286;49.858;8.768;2023-05-07T05:39:44;2.90;;;2.70;;
6505;SDS011;3286;49.858;8.768;2023-05-07T05:42:12;3.90;;;2.92;;
6505;SDS011;3286;49.858;8.768;2023-05-07T05:44:39;5.82;;;3.13;;
6505;SDS011;3286;49.858;8.768;2023-05-07T05:47:05;3.47;;;2.80;;
6505;SDS011;3286;49.858;8.768;2023-05-07T05:49:32;6.80;;;3.30;;
6505;SDS011;3286;49.858;8.768;2023-05-07T05:51:59;3.17;;;2.90;;
6505;SDS011;3286;49.858;8.768;2023-05-07T05:54:26;3.50;;;2.83;;
6505;SDS011;3286;49.858;8.768;2023-05-07T05:56:52;4.68;;;3.10;;
6505;SDS011;3286;49.858;8.768;2023-05-07T05:59:20;6.47;;;2.75;;
6505;SDS011;3286;49.858;8.768;2023-05-07T06:01:47;3.22;;;2.92;;
6505;SDS011;3286;49.858;8.768;2023-05-07T06:04:13;7.35;;;3.55;;
6505;SDS011;3286;49.858;8.768;2023-05-07T06:06:40;3.50;;;3.03;;
6505;SDS011;3286;49.858;8.768;2023-05-07T06:09:07;3.83;;;3.05;;
6505;SDS011;3286;49.858;8.768;2023-05-07T06:11:33;4.57;;;2.53;;
6505;SDS011;3286;49.858;8.768;2023-05-07T06:14:00;4.15;;;2.92;;
6505;SDS011;3286;49.858;8.768;2023-05-07T06:16:28;3.78;;;2.90;;
6505;SDS011;3286;49.858;8.768;2023-05-07T06:18:55;6.90;;;3.03;;
6505;SDS011;3286;49.858;8.768;2023-05-07T06:21:21;2.75;;;2.55;;
6505;SDS011;3286;49.858;8.768;2023-05-07T06:23:48;3.05;;;2.58;;
6505;SDS011;3286;49.858;8.768;2023-05-07T06:26:16;3.92;;;2.50;;
6505;SDS011;3286;49.858;8.768;2023-05-07T06:28:42;4.05;;;2.38;;
6505;SDS011;3286;49.858;8.768;2023-05-07T06:31:12;2.63;;;2.13;;
6505;SDS011;3286;49.858;8.768;2023-05-07T06:33:43;5.10;;;2.65;;
6505;SDS011;3286;49.858;8.768;2023-05-07T06:36:10;6.60;;;2.60;;
6505;SDS011;3286;49.858;8.768;2023-05-07T06:38:36;2.90;;;2.35;;
6505;SDS011;3286;49.858;8.768;2023-05-07T06:41:03;3.00;;;2.25;;
6505;SDS011;3286;49.858;8.768;2023-05-07T06:43:31;2.63;;;2.42;;
6505;SDS011;3286;49.858;8.768;2023-05-07T06:45:58;2.67;;;2.30;;
6505;SDS011;3286;49.858;8.768;2023-05-07T06:48:25;3.15;;;2.20;;
6505;SDS011;3286;49.858;8.768;2023-05-07T06:50:53;2.67;;;2.35;;
6505;SDS011;3286;49.858;8.768;2023-05-07T06:53:20;3.90;;;2.35;;
6505;SDS011;3286;49.858;8.768;2023-05-07T06:55:47;2.78;;;2.10;;
6505;SDS011;3286;49.858;8.768;2023-05-07T06:58:13;3.08;;;2.60;;
6505;SDS011;3286;49.858;8.768;2023-05-07T07:00:40;3.13;;;2.47;;
6505;SDS011;3286;49.858;8.768;2023-05-07T07:03:07;4.18;;;2.50;;
6505;SDS011;3286;49.858;8.768;2023-05-07T07:05:33;2.60;;;2.40;;
6505;SDS011;3286;49.858;8.768;2023-05-07T07:08:01;4.10;;;2.50;;
6505;SDS011;3286;49.858;8.768;2023-05-07T07:10:28;2.63;;;2.22;;
6505;SDS011;3286;49.858;8.768;2023-05-07T07:12:55;4.32;;;2.55;;
6505;SDS011;3286;49.858;8.768;2023-05-07T07:15:21;2.80;;;2.50;;
6505;SDS011;3286;49.858;8.768;2023-05-07T07:17:50;5.88;;;2.60;;
6505;SDS011;3286;49.858;8.768;2023-05-07T07:20:16;2.97;;;2.65;;
6505;SDS011;3286;49.858;8.768;2023-05-07T07:22:43;3.88;;;2.67;;
6505;SDS011;3286;49.858;8.768;2023-05-07T07:25:11;5.68;;;3.05;;
6505;SDS011;3286;49.858;8.768;2023-05-07T07:27:38;2.60;;;2.40;;
6505;SDS011;3286;49.858;8.768;2023-05-07T07:30:05;5.85;;;2.53;;
6505;SDS011;3286;49.858;8.768;2023-05-07T07:32:32;3.13;;;2.58;;
6505;SDS011;3286;49.858;8.768;2023-05-07T07:34:59;4.78;;;3.03;;
6505;SDS011;3286;49.858;8.768;2023-05-07T07:37:26;3.30;;;3.00;;
6505;SDS011;3286;49.858;8.768;2023-05-07T07:39:53;4.75;;;3.13;;
6505;SDS011;3286;49.858;8.768;2023-05-07T07:42:21;6.72;;;3.08;;
6505;SDS011;3286;49.858;8.768;2023-05-07T07:44:47;3.10;;;2.80;;
6505;SDS011;3286;49.858;8.768;2023-05-07T07:47:14;4.32;;;2.67;;
6505;SDS011;3286;49.858;8.768;2023-05-07T07:49:41;3.50;;;2.90;;
6505;SDS011;3286;49.858;8.768;2023-05-07T07:52:07;2.80;;;2.60;;
6505;SDS011;3286;49.858;8.768;2023-05-07T07:54:34;3.17;;;2.78;;
6505;SDS011;3286;49.858;8.768;2023-05-07T07:57:01;5.85;;;2.80;;
6505;SDS011;3286;49.858;8.768;2023-05-07T07:59:29;3.00;;;2.70;;
6505;SDS011;3286;49.858;8.768;2023-05-07T08:01:56;3.20;;;2.90;;
6505;SDS011;3286;49.858;8.768;2023-05-07T08:04:23;4.07;;;2.78;;
6505;SDS011;3286;49.858;8.768;2023-05-07T08:06:49;6.63;;;3.00;;
6505;SDS011;3286;49.858;8.768;2023-05-07T08:09:16;3.30;;;2.80;;
6505;SDS011;3286;49.858;8.768;2023-05-07T08:11:42;3.20;;;2.90;;
6505;SDS011;3286;49.858;8.768;2023-05-07T08:14:09;3.10;;;2.80;;
6505;SDS011;3286;49.858;8.768;2023-05-07T08:16:37;4.18;;;3.00;;
6505;SDS011;3286;49.858;8.768;2023-05-07T08:19:04;9.02;;;2.92;;
6505;SDS011;3286;49.858;8.768;2023-05-07T08:21:30;3.03;;;2.75;;
6505;SDS011;3286;49.858;8.768;2023-05-07T08:23:57;3.92;;;2.97;;
6505;SDS011;3286;49.858;8.768;2023-05-07T08:26:24;3.28;;;2.85;;
6505;SDS011;3286;49.858;8.768;2023-05-07T08:28:50;10.52;;;3.08;;
6505;SDS011;3286;49.858;8.768;2023-05-07T08:31:17;3.03;;;2.83;;
6505;SDS011;3286;49.858;8.768;2023-05-07T08:33:45;4.57;;;2.75;;
6505;SDS011;3286;49.858;8.768;2023-05-07T08:36:12;3.50;;;2.90;;
6505;SDS011;3286;49.858;8.768;2023-05-07T08:38:38;3.72;;;3.10;;
6505;SDS011;3286;49.858;8.768;2023-05-07T08:41:09;4.28;;;2.78;;
6505;SDS011;3286;49.858;8.768;2023-05-07T08:43:36;3.25;;;2.72;;
6505;SDS011;3286;49.858;8.768;2023-05-07T08:46:06;3.15;;;2.85;;
6505;SDS011;3286;49.858;8.768;2023-05-07T08:48:36;5.07;;;3.25;;
6505;SDS011;3286;49.858;8.768;2023-05-07T08:51:04;3.22;;;2.85;;
6505;SDS011;3286;49.858;8.768;2023-05-07T08:53:31;3.88;;;2.70;;
6505;SDS011;3286;49.858;8.768;2023-05-07T08:55:59;4.13;;;3.30;;
6505;SDS011;3286;49.858;8.768;2023-05-07T08:58:26;3.47;;;3.05;;
6505;SDS011;3286;49.858;8.768;2023-05-07T09:00:52;6.25;;;3.00;;
6505;SDS011;3286;49.858;8.768;2023-05-07T09:03:20;4.63;;;3.55;;
6505;SDS011;3286;49.858;8.768;2023-05-07T09:05:46;3.92;;;2.80;;
6505;SDS011;3286;49.858;8.768;2023-05-07T09:08:15;4.82;;;3.00;;
6505;SDS011;3286;49.858;8.768;2023-05-07T09:10:42;3.40;;;3.10;;
6505;SDS011;3286;49.858;8.768;2023-05-07T09:13:08;3.97;;;3.05;;
6505;SDS011;3286;49.858;8.768;2023-05-07T09:15:38;3.40;;;3.00;;
6505;SDS011;3286;49.858;8.768;2023-05-07T09:18:04;3.42;;;3.08;;
6505;SDS011;3286;49.858;8.768;2023-05-07T09:20:31;3.42;;;3.00;;
6505;SDS011;3286;49.858;8.768;2023-05-07T09:22:57;5.70;;;2.97;;
6505;SDS011;3286;49.858;8.768;2023-05-07T09:25:29;2.90;;;2.70;;
6505;SDS011;3286;49.858;8.768;2023-05-07T09:27:57;2.70;;;2.50;;
6505;SDS011;3286;49.858;8.768;2023-05-07T09:30:27;3.85;;;2.83;;
6505;SDS011;3286;49.858;8.768;2023-05-07T09:32:54;4.70;;;3.17;;
6505;SDS011;3286;49.858;8.768;2023-05-07T09:35:22;3.42;;;2.92;;
6505;SDS011;3286;49.858;8.768;2023-05-07T09:37:52;3.53;;;3.00;;
6505;SDS011;3286;49.858;8.768;2023-05-07T09:40:20;4.65;;;3.05;;
6505;SDS011;3286;49.858;8.768;2023-05-07T09:42:49;6.05;;;3.10;;
6505;SDS011;3286;49.858;8.768;2023-05-07T09:45:16;3.17;;;2.88;;
6505;SDS011;3286;49.858;8.768;2023-05-07T09:47:47;3.40;;;3.00;;
6505;SDS011;3286;49.858;8.768;2023-05-07T09:50:16;11.85;;;3.05;;
6505;SDS011;3286;49.858;8.768;2023-05-07T09:52:44;3.67;;;2.80;;
6505;SDS011;3286;49.858;8.768;2023-05-07T09:55:11;4.45;;;2.80;;
6505;SDS011;3286;49.858;8.768;2023-05-07T09:57:39;3.13;;;2.83;;
6505;SDS011;3286;49.858;8.768;2023-05-07T10:00:09;5.35;;;3.10;;
6505;SDS011;3286;49.858;8.768;2023-05-07T10:02:37;3.65;;;2.97;;
6505;SDS011;3286;49.858;8.768;2023-05-07T10:05:11;2.95;;;2.75;;
6505;SDS011;3286;49.858;8.768;2023-05-07T10:07:38;2.88;;;2.67;;
6505;SDS011;3286;49.858;8.768;2023-05-07T10:10:06;3.80;;;2.60;;
6505;SDS011;3286;49.858;8.768;2023-05-07T10:12:35;5.47;;;3.60;;
6505;SDS011;3286;49.858;8.768;2023-05-07T10:15:05;4.75;;;2.97;;
6505;SDS011;3286;49.858;8.768;2023-05-07T10:17:35;6.43;;;3.10;;
6505;SDS011;3286;49.858;8.768;2023-05-07T10:20:02;3.47;;;3.17;;
6505;SDS011;3286;49.858;8.768;2023-05-07T10:22:30;5.50;;;3.00;;
6505;SDS011;3286;49.858;8.768;2023-05-07T10:25:03;4.40;;;3.05;;
6505;SDS011;3286;49.858;8.768;2023-05-07T10:27:36;10.50;;;3.47;;
6505;SDS011;3286;49.858;8.768;2023-05-07T10:30:07;3.42;;;3.13;;
6505;SDS011;3286;49.858;8.768;2023-05-07T10:32:43;5.18;;;3.45;;
6505;SDS011;3286;49.858;8.768;2023-05-07T10:35:14;4.38;;;3.17;;
6505;SDS011;3286;49.858;8.768;2023-05-07T10:37:44;10.50;;;2.90;;
6505;SDS011;3286;49.858;8.768;2023-05-07T10:40:11;5.43;;;3.13;;
6505;SDS011;3286;49.858;8.768;2023-05-07T10:42:39;5.05;;;3.08;;
6505;SDS011;3286;49.858;8.768;2023-05-07T10:45:23;4.60;;;3.10;;
6505;SDS011;3286;49.858;8.768;2023-05-07T10:48:08;6.53;;;3.10;;
6505;SDS011;3286;49.858;8.768;2023-05-07T10:50:36;4.88;;;2.92;;
6505;SDS011;3286;49.858;8.768;2023-05-07T10:58:51;4.22;;;2.83;;
6505;SDS011;3286;49.858;8.768;2023-05-07T11:04:17;3.00;;;2.63;;
6505;SDS011;3286;49.858;8.768;2023-05-07T11:09:54;2.55;;;2.35;;
6505;SDS011;3286;49.858;8.768;2023-05-07T11:15:37;2.85;;;2.63;;
6505;SDS011;3286;49.858;8.768;2023-05-07T11:18:09;3.28;;;2.80;;
6505;SDS011;3286;49.858;8.768;2023-05-07T11:26:25;3.90;;;3.20;;
6505;SDS011;3286;49.858;8.768;2023-05-07T11:28:53;4.43;;;2.78;;
6505;SDS011;3286;49.858;8.768;2023-05-07T11:31:21;3.25;;;2.75;;
6505;SDS011;3286;49.858;8.768;2023-05-07T11:33:49;5.07;;;2.90;;
6505;SDS011;3286;49.858;8.768;2023-05-07T11:36:18;3.38;;;3.08;;
6505;SDS011;3286;49.858;8.768;2023-05-07T11:38:46;5.45;;;3.33;;
6505;SDS011;3286;49.858;8.768;2023-05-07T11:41:13;3.80;;;3.00;;
6505;SDS011;3286;49.858;8.768;2023-05-07T11:43:53;5.45;;;2.50;;
6505;SDS011;3286;49.858;8.768;2023-05-07T11:46:24;3.67;;;2.72;;
6505;SDS011;3286;49.858;8.768;2023-05-07T11:48:50;2.88;;;2.55;;
6505;SDS011;3286;49.858;8.768;2023-05-07T11:51:22;3.25;;;2.40;;
6505;SDS011;3286;49.858;8.768;2023-05-07T11:53:51;6.20;;;2.70;;
6505;SDS011;3286;49.858;8.768;2023-05-07T11:56:18;3.20;;;2.92;;
6505;SDS011;3286;49.858;8.768;2023-05-07T11:58:46;2.45;;;2.25;;
6505;SDS011;3286;49.858;8.768;2023-05-07T12:01:13;3.97;;;2.53;;
6505;SDS011;3286;49.858;8.768;2023-05-07T12:03:42;2.65;;;2.42;;
6505;SDS011;3286;49.858;8.768;2023-05-07T12:06:10;2.45;;;2.25;;
6505;SDS011;3286;49.858;8.768;2023-05-07T12:08:39;3.30;;;2.47;;
6505;SDS011;3286;49.858;8.768;2023-05-07T12:11:07;4.60;;;2.35;;
6505;SDS011;3286;49.858;8.768;2023-05-07T12:13:36;3.90;;;2.42;;
6505;SDS011;3286;49.858;8.768;2023-05-07T12:16:04;4.22;;;2.08;;
6505;SDS011;3286;49.858;8.768;2023-05-07T12:18:32;3.13;;;2.55;;
6505;SDS011;3286;49.858;8.768;2023-05-07T12:21:00;3.13;;;2.60;;
6505;SDS011;3286;49.858;8.768;2023-05-07T12:23:27;2.45;;;2.15;;
6505;SDS011;3286;49.858;8.768;2023-05-07T12:25:56;2.05;;;1.92;;
6505;SDS011;3286;49.858;8.768;2023-05-07T12:28:23;3.92;;;2.33;;
6505;SDS011;3286;49.858;8.768;2023-05-07T12:30:50;2.40;;;2.20;;
6505;SDS011;3286;49.858;8.768;2023-05-07T12:33:18;3.03;;;2.10;;
6505;SDS011;3286;49.858;8.768;2023-05-07T12:35:46;2.30;;;2.10;;
6505;SDS011;3286;49.858;8.768;2023-05-07T12:38:15;2.40;;;2.20;;
6505;SDS011;3286;49.858;8.768;2023-05-07T12:40:44;6.97;;;2.05;;
6505;SDS011;3286;49.858;8.768;2023-05-07T12:43:16;3.40;;;2.15;;
6505;SDS011;3286;49.858;8.768;2023-05-07T12:45:44;2.40;;;2.10;;
6505;SDS011;3286;49.858;8.768;2023-05-07T12:48:11;2.58;;;1.83;;
6505;SDS011;3286;49.858;8.768;2023-05-07T12:50:38;3.80;;;2.00;;
6505;SDS011;3286;49.858;8.768;2023-05-07T12:53:05;3.25;;;2.10;;
6505;SDS011;3286;49.858;8.768;2023-05-07T12:55:39;7.50;;;2.40;;
6505;SDS011;3286;49.858;8.768;2023-05-07T12:58:11;1.80;;;1.70;;
6505;SDS011;3286;49.858;8.768;2023-05-07T13:00:43;1.98;;;1.80;;
6505;SDS011;3286;49.858;8.768;2023-05-07T13:03:10;4.57;;;2.00;;
6505;SDS011;3286;49.858;8.768;2023-05-07T13:05:37;3.25;;;2.05;;
6505;SDS011;3286;49.858;8.768;2023-05-07T13:08:05;2.13;;;1.83;;
6505;SDS011;3286;49.858;8.768;2023-05-07T13:10:34;1.90;;;1.80;;
6505;SDS011;3286;49.858;8.768;2023-05-07T13:13:01;1.80;;;1.70;;
6505;SDS011;3286;49.858;8.768;2023-05-07T13:15:27;12.02;;;1.88;;
6505;SDS011;3286;49.858;8.768;2023-05-07T13:17:55;1.75;;;1.65;;
6505;SDS011;3286;49.858;8.768;2023-05-07T13:20:22;3.15;;;1.92;;
6505;SDS011;3286;49.858;8.768;2023-05-07T13:22:49;2.97;;;1.90;;
6505;SDS011;3286;49.858;8.768;2023-05-07T13:25:15;2.75;;;2.05;;
6505;SDS011;3286;49.858;8.768;2023-05-07T13:27:42;3.47;;;1.73;;
6505;SDS011;3286;49.858;8.768;2023-05-07T13:30:09;2.28;;;1.77;;
6505;SDS011;3286;49.858;8.768;2023-05-07T13:32:35;1.90;;;1.70;;
6505;SDS011;3286;49.858;8.768;2023-05-07T13:35:04;3.55;;;1.77;;
6505;SDS011;3286;49.858;8.768;2023-05-07T13:37:31;1.98;;;1.52;;
6505;SDS011;3286;49.858;8.768;2023-05-07T13:39:57;2.63;;;1.92;;
6505;SDS011;3286;49.858;8.768;2023-05-07T13:42:24;2.03;;;1.67;;
6505;SDS011;3286;49.858;8.768;2023-05-07T13:44:51;3.03;;;1.50;;
6505;SDS011;3286;49.858;8.768;2023-05-07T13:47:17;2.67;;;1.70;;
6505;SDS011;3286;49.858;8.768;2023-05-07T13:49:44;1.55;;;1.45;;
6505;SDS011;3286;49.858;8.768;2023-05-07T13:52:12;2.60;;;1.60;;
6505;SDS011;3286;49.858;8.768;2023-05-07T13:54:39;3.33;;;1.90;;
6505;SDS011;3286;49.858;8.768;2023-05-07T13:57:05;2.65;;;1.80;;
6505;SDS011;3286;49.858;8.768;2023-05-07T13:59:32;1.88;;;1.67;;
6505;SDS011;3286;49.858;8.768;2023-05-07T14:01:59;2.03;;;1.75;;
6505;SDS011;3286;49.858;8.768;2023-05-07T14:04:26;2.42;;;1.63;;
6505;SDS011;3286;49.858;8.768;2023-05-07T14:06:52;3.08;;;1.70;;
6505;SDS011;3286;49.858;8.768;2023-05-07T14:09:20;3.17;;;1.60;;
6505;SDS011;3286;49.858;8.768;2023-05-07T14:11:47;2.60;;;1.85;;
6505;SDS011;3286;49.858;8.768;2023-05-07T14:14:16;3.90;;;1.92;;
6505;SDS011;3286;49.858;8.768;2023-05-07T14:16:43;1.92;;;1.60;;
6505;SDS011;3286;49.858;8.768;2023-05-07T14:19:09;3.65;;;1.77;;
6505;SDS011;3286;49.858;8.768;2023-05-07T14:21:36;2.25;;;1.70;;
6505;SDS011;3286;49.858;8.768;2023-05-07T14:24:03;3.15;;;1.90;;
6505;SDS011;3286;49.858;8.768;2023-05-07T14:26:31;2.85;;;1.90;;
6505;SDS011;3286;49.858;8.768;2023-05-07T14:28:58;2.90;;;2.00;;
6505;SDS011;3286;49.858;8.768;2023-05-07T14:31:25;2.17;;;1.90;;
6505;SDS011;3286;49.858;8.768;2023-05-07T14:33:52;3.65;;;2.22;;
6505;SDS011;3286;49.858;8.768;2023-05-07T14:36:18;4.63;;;1.95;;
6505;SDS011;3286;49.858;8.768;2023-05-07T14:38:47;4.20;;;1.95;;
6505;SDS011;3286;49.858;8.768;2023-05-07T14:41:15;2.60;;;2.10;;
6505;SDS011;3286;49.858;8.768;2023-05-07T14:43:43;2.85;;;2.17;;
6505;SDS011;3286;49.858;8.768;2023-05-07T14:46:14;3.42;;;1.92;;
6505;SDS011;3286;49.858;8.768;2023-05-07T14:48:42;1.92;;;1.73;;
6505;SDS011;3286;49.858;8.768;2023-05-07T14:51:09;4.93;;;2.50;;
6505;SDS011;3286;49.858;8.768;2023-05-07T14:53:36;2.95;;;1.98;;
6505;SDS011;3286;49.858;8.768;2023-05-07T14:56:03;3.67;;;1.77;;
6505;SDS011;3286;49.858;8.768;2023-05-07T14:58:30;2.75;;;1.90;;
6505;SDS011;3286;49.858;8.768;2023-05-07T15:00:58;2.30;;;2.10;;
6505;SDS011;3286;49.858;8.768;2023-05-07T15:03:25;2.25;;;2.05;;
6505;SDS011;3286;49.858;8.768;2023-05-07T15:05:52;2.15;;;1.95;;
6505;SDS011;3286;49.858;8.768;2023-05-07T15:08:18;3.05;;;1.83;;
6505;SDS011;3286;49.858;8.768;2023-05-07T15:10:45;2.35;;;1.80;;
6505;SDS011;3286;49.858;8.768;2023-05-07T15:13:12;2.30;;;2.10;;
6505;SDS011;3286;49.858;8.768;2023-05-07T15:15:38;4.85;;;1.92;;
6505;SDS011;3286;49.858;8.768;2023-05-07T15:18:07;2.45;;;2.25;;
6505;SDS011;3286;49.858;8.768;2023-05-07T15:20:33;3.40;;;2.17;;
6505;SDS011;3286;49.858;8.768;2023-05-07T15:23:00;5.55;;;1.90;;
6505;SDS011;3286;49.858;8.768;2023-05-07T15:25:27;4.78;;;1.85;;
6505;SDS011;3286;49.858;8.768;2023-05-07T15:27:56;4.82;;;1.88;;
6505;SDS011;3286;49.858;8.768;2023-05-07T15:30:22;2.20;;;2.00;;
6505;SDS011;3286;49.858;8.768;2023-05-07T15:32:49;2.35;;;1.92;;
6505;SDS011;3286;49.858;8.768;2023-05-07T15:35:17;2.45;;;1.88;;
6505;SDS011;3286;49.858;8.768;2023-05-07T15:37:46;2.20;;;2.00;;